sensor_id;sensor_type;location;lat;lon;timestamp;pressure;altitude;pressure_sealevel;temperature;humidity
19259;BME280;9763;48.780;9.212;2022-12-05T00:02:23;98199.03;;;7.56;77.90
19259;BME280;9763;48.780;9.212;2022-12-05T00:05:47;98194.94;;;7.52;78.18
19259;BME280;9763;48.780;9.212;2022-12-05T00:09:12;98194.75;;;7.55;78.57
19259;BME280;9763;48.780;9.212;2022-12-05T00:12:37;98196.28;;;7.59;78.58
19259;BME280;9763;48.780;9.212;2022-12-05T00:16:00;98183.88;;;7.49;77.74
19259;BME280;9763;48.780;9.212;2022-12-05T00:19:24;98204.16;;;7.58;77.93
19259;BME280;9763;48.780;9.212;2022-12-05T00:22:47;98173.84;;;7.43;78.06
19259;BME280;9763;48.780;9.212;2022-12-05T00:26:12;98199.50;;;7.63;78.55
19259;BME280;9763;48.780;9.212;2022-12-05T00:29:37;98199.44;;;7.65;77.95
19259;BME280;9763;48.780;9.212;2022-12-05T00:33:00;98193.56;;;7.61;77.74
19259;BME280;9763;48.780;9.212;2022-12-05T00:36:26;98185.47;;;7.51;78.11
19259;BME280;9763;48.780;9.212;2022-12-05T00:39:50;98199.44;;;7.65;78.40
19259;BME280;9763;48.780;9.212;2022-12-05T00:43:13;98194.22;;;7.65;78.33
19259;BME280;9763;48.780;9.212;2022-12-05T00:46:39;98211.25;;;7.70;78.04
19259;BME280;9763;48.780;9.212;2022-12-05T00:50:03;98214.75;;;7.69;78.10
19259;BME280;9763;48.780;9.212;2022-12-05T00:53:27;98210.41;;;7.70;78.34
19259;BME280;9763;48.780;9.212;2022-12-05T00:56:50;98209.66;;;7.68;77.85
19259;BME280;9763;48.780;9.212;2022-12-05T01:00:18;98219.28;;;7.66;77.92
19259;BME280;9763;48.780;9.212;2022-12-05T01:03:44;98231.59;;;7.62;77.75
19259;BME280;9763;48.780;9.212;2022-12-05T01:07:09;98230.19;;;7.56;77.71
19259;BME280;9763;48.780;9.212;2022-12-05T01:10:32;98236.72;;;7.64;77.73
19259;BME280;9763;48.780;9.212;2022-12-05T01:13:56;98249.69;;;7.64;78.27
19259;BME280;9763;48.780;9.212;2022-12-05T01:17:20;98255.25;;;7.57;78.25
19259;BME280;9763;48.780;9.212;2022-12-05T01:20:46;98264.44;;;7.63;78.12
19259;BME280;9763;48.780;9.212;2022-12-05T01:24:11;98272.91;;;7.67;78.01
19259;BME280;9763;48.780;9.212;2022-12-05T01:27:34;98244.09;;;7.55;77.94
19259;BME280;9763;48.780;9.212;2022-12-05T01:31:04;98255.56;;;7.67;77.46
19259;BME280;9763;48.780;9.212;2022-12-05T01:34:27;98257.31;;;7.67;78.09
19259;BME280;9763;48.780;9.212;2022-12-05T01:37:52;98264.53;;;7.62;78.00
19259;BME280;9763;48.780;9.212;2022-12-05T01:41:19;98261.09;;;7.61;77.82
19259;BME280;9763;48.780;9.212;2022-12-05T01:45:08;98249.63;;;7.65;77.62
19259;BME280;9763;48.780;9.212;2022-12-05T01:48:36;98275.34;;;7.70;77.72
19259;BME280;9763;48.780;9.212;2022-12-05T01:52:04;98265.59;;;7.73;77.91
19259;BME280;9763;48.780;9.212;2022-12-05T01:55:30;98274.81;;;7.79;78.03
19259;BME280;9763;48.780;9.212;2022-12-05T01:58:55;98271.38;;;7.78;77.37
19259;BME280;9763;48.780;9.212;2022-12-05T02:02:19;98255.13;;;7.75;77.30
19259;BME280;9763;48.780;9.212;2022-12-05T02:05:46;98243.41;;;7.68;77.63
19259;BME280;9763;48.780;9.212;2022-12-05T02:09:10;98266.44;;;7.74;77.77
19259;BME280;9763;48.780;9.212;2022-12-05T02:12:36;98262.88;;;7.61;77.69
19259;BME280;9763;48.780;9.212;2022-12-05T02:16:07;98274.66;;;7.66;77.45
19259;BME280;9763;48.780;9.212;2022-12-05T02:20:08;98283.66;;;7.61;77.99
19259;BME280;9763;48.780;9.212;2022-12-05T02:24:06;98274.59;;;7.52;78.14
19259;BME280;9763;48.780;9.212;2022-12-05T02:31:44;98302.06;;;7.40;77.76
19259;BME280;9763;48.780;9.212;2022-12-05T02:35:20;98300.78;;;7.32;78.52
19259;BME280;9763;48.780;9.212;2022-12-05T02:38:57;98294.34;;;7.23;78.06
19259;BME280;9763;48.780;9.212;2022-12-05T02:42:30;98314.28;;;7.38;78.32
19259;BME280;9763;48.780;9.212;2022-12-05T02:46:00;98308.16;;;7.39;78.56
19259;BME280;9763;48.780;9.212;2022-12-05T02:49:31;98306.41;;;7.40;78.06
19259;BME280;9763;48.780;9.212;2022-12-05T02:53:01;98315.63;;;7.30;78.44
19259;BME280;9763;48.780;9.212;2022-12-05T02:56:26;98325.91;;;7.31;78.53
19259;BME280;9763;48.780;9.212;2022-12-05T02:59:52;98333.03;;;7.28;78.79
19259;BME280;9763;48.780;9.212;2022-12-05T03:03:18;98316.88;;;7.22;78.98
19259;BME280;9763;48.780;9.212;2022-12-05T03:06:49;98303.91;;;7.22;78.91
19259;BME280;9763;48.780;9.212;2022-12-05T03:10:21;98311.03;;;7.35;78.82
19259;BME280;9763;48.780;9.212;2022-12-05T03:13:51;98306.47;;;7.38;78.49
19259;BME280;9763;48.780;9.212;2022-12-05T03:17:20;98298.47;;;7.43;78.92
19259;BME280;9763;48.780;9.212;2022-12-05T03:20:48;98303.56;;;7.44;78.43
19259;BME280;9763;48.780;9.212;2022-12-05T03:24:15;98308.00;;;7.42;78.59
19259;BME280;9763;48.780;9.212;2022-12-05T03:27:44;98303.81;;;7.40;78.34
19259;BME280;9763;48.780;9.212;2022-12-05T03:31:13;98281.25;;;7.24;78.33
19259;BME280;9763;48.780;9.212;2022-12-05T03:34:57;98306.25;;;7.43;78.30
19259;BME280;9763;48.780;9.212;2022-12-05T03:38:33;98297.53;;;7.44;78.76
19259;BME280;9763;48.780;9.212;2022-12-05T03:42:08;98303.00;;;7.55;78.83
19259;BME280;9763;48.780;9.212;2022-12-05T03:45:38;98311.19;;;7.63;78.20
19259;BME280;9763;48.780;9.212;2022-12-05T03:49:10;98322.09;;;7.70;78.25
19259;BME280;9763;48.780;9.212;2022-12-05T03:52:42;98319.22;;;7.74;78.45
19259;BME280;9763;48.780;9.212;2022-12-05T03:56:34;98313.72;;;7.80;77.83
19259;BME280;9763;48.780;9.212;2022-12-05T04:00:05;98312.63;;;7.84;77.87
19259;BME280;9763;48.780;9.212;2022-12-05T04:03:36;98316.88;;;7.85;77.75
19259;BME280;9763;48.780;9.212;2022-12-05T04:07:06;98309.75;;;7.89;77.39
19259;BME280;9763;48.780;9.212;2022-12-05T04:10:36;98306.22;;;7.90;78.03
19259;BME280;9763;48.780;9.212;2022-12-05T04:14:16;98305.56;;;7.86;77.81
19259;BME280;9763;48.780;9.212;2022-12-05T04:17:50;98281.28;;;7.72;77.25
19259;BME280;9763;48.780;9.212;2022-12-05T04:21:17;98289.09;;;7.72;77.37
19259;BME280;9763;48.780;9.212;2022-12-05T04:25:01;98308.00;;;7.74;77.39
19259;BME280;9763;48.780;9.212;2022-12-05T04:28:51;98318.59;;;7.71;77.92
19259;BME280;9763;48.780;9.212;2022-12-05T04:32:25;98327.38;;;7.68;77.61
19259;BME280;9763;48.780;9.212;2022-12-05T04:35:57;98340.28;;;7.70;77.56
19259;BME280;9763;48.780;9.212;2022-12-05T04:39:29;98340.13;;;7.73;77.91
19259;BME280;9763;48.780;9.212;2022-12-05T04:42:58;98337.41;;;7.74;77.84
19259;BME280;9763;48.780;9.212;2022-12-05T04:46:24;98328.69;;;7.75;77.92
19259;BME280;9763;48.780;9.212;2022-12-05T04:49:48;98342.53;;;7.76;77.72
19259;BME280;9763;48.780;9.212;2022-12-05T04:53:18;98341.75;;;7.74;77.88
19259;BME280;9763;48.780;9.212;2022-12-05T04:56:47;98347.06;;;7.72;77.89
19259;BME280;9763;48.780;9.212;2022-12-05T05:00:13;98346.97;;;7.74;78.09
19259;BME280;9763;48.780;9.212;2022-12-05T05:03:41;98342.72;;;7.73;78.10
19259;BME280;9763;48.780;9.212;2022-12-05T05:07:07;98342.72;;;7.73;77.59
19259;BME280;9763;48.780;9.212;2022-12-05T05:10:42;98336.09;;;7.67;78.11
19259;BME280;9763;48.780;9.212;2022-12-05T05:14:07;98346.47;;;7.67;77.56
19259;BME280;9763;48.780;9.212;2022-12-05T05:17:30;98353.34;;;7.68;77.89
19259;BME280;9763;48.780;9.212;2022-12-05T05:20:55;98341.88;;;7.56;78.11
19259;BME280;9763;48.780;9.212;2022-12-05T05:24:19;98362.06;;;7.67;77.62
19259;BME280;9763;48.780;9.212;2022-12-05T05:27:49;98376.03;;;7.65;77.68
19259;BME280;9763;48.780;9.212;2022-12-05T05:31:14;98376.88;;;7.65;78.15
19259;BME280;9763;48.780;9.212;2022-12-05T05:34:39;98365.47;;;7.52;78.06
19259;BME280;9763;48.780;9.212;2022-12-05T05:38:02;98381.22;;;7.65;77.79
19259;BME280;9763;48.780;9.212;2022-12-05T05:41:30;98381.06;;;7.68;78.23
19259;BME280;9763;48.780;9.212;2022-12-05T05:44:56;98395.66;;;7.70;78.17
19259;BME280;9763;48.780;9.212;2022-12-05T05:48:20;98395.47;;;7.73;78.27
19259;BME280;9763;48.780;9.212;2022-12-05T05:51:44;98387.19;;;7.67;78.18
19259;BME280;9763;48.780;9.212;2022-12-05T05:55:09;98395.00;;;7.82;77.85
19259;BME280;9763;48.780;9.212;2022-12-05T05:58:33;98383.34;;;7.89;77.91
19259;BME280;9763;48.780;9.212;2022-12-05T06:01:58;98378.66;;;7.96;78.09
19259;BME280;9763;48.780;9.212;2022-12-05T06:05:21;98376.56;;;8.03;77.86
19259;BME280;9763;48.780;9.212;2022-12-05T06:08:45;98378.06;;;8.07;77.58
19259;BME280;9763;48.780;9.212;2022-12-05T06:12:09;98379.41;;;7.98;77.33
19259;BME280;9763;48.780;9.212;2022-12-05T06:15:32;98393.00;;;8.03;76.98
19259;BME280;9763;48.780;9.212;2022-12-05T06:18:58;98394.06;;;7.99;77.52
19259;BME280;9763;48.780;9.212;2022-12-05T06:22:21;98398.63;;;7.95;77.38
19259;BME280;9763;48.780;9.212;2022-12-05T06:25:47;98382.34;;;7.92;77.04
19259;BME280;9763;48.780;9.212;2022-12-05T06:29:11;98393.81;;;7.88;77.44
19259;BME280;9763;48.780;9.212;2022-12-05T06:32:34;98412.94;;;7.87;77.99
19259;BME280;9763;48.780;9.212;2022-12-05T06:36:06;98423.25;;;7.88;77.83
19259;BME280;9763;48.780;9.212;2022-12-05T06:39:30;98431.03;;;7.88;77.54
19259;BME280;9763;48.780;9.212;2022-12-05T06:42:54;98436.38;;;7.85;77.61
19259;BME280;9763;48.780;9.212;2022-12-05T06:46:18;98439.75;;;7.87;78.11
19259;BME280;9763;48.780;9.212;2022-12-05T06:49:41;98414.13;;;7.81;78.36
19259;BME280;9763;48.780;9.212;2022-12-05T06:53:06;98434.72;;;8.00;77.47
19259;BME280;9763;48.780;9.212;2022-12-05T06:56:30;98441.38;;;8.06;77.78
19259;BME280;9763;48.780;9.212;2022-12-05T06:59:54;98428.09;;;8.10;78.17
19259;BME280;9763;48.780;9.212;2022-12-05T07:03:38;98420.66;;;8.04;77.71
19259;BME280;9763;48.780;9.212;2022-12-05T07:07:00;98426.34;;;8.11;77.44
19259;BME280;9763;48.780;9.212;2022-12-05T07:10:25;98430.38;;;8.16;77.85
19259;BME280;9763;48.780;9.212;2022-12-05T07:13:49;98432.75;;;8.21;77.83
19259;BME280;9763;48.780;9.212;2022-12-05T07:17:13;98445.75;;;8.21;77.61
19259;BME280;9763;48.780;9.212;2022-12-05T07:20:36;98464.75;;;8.21;77.35
19259;BME280;9763;48.780;9.212;2022-12-05T07:24:20;98464.09;;;8.18;77.75
19259;BME280;9763;48.780;9.212;2022-12-05T07:27:45;98465.78;;;8.19;77.79
19259;BME280;9763;48.780;9.212;2022-12-05T07:31:11;98470.53;;;8.26;78.11
19259;BME280;9763;48.780;9.212;2022-12-05T07:34:35;98478.78;;;8.35;77.61
19259;BME280;9763;48.780;9.212;2022-12-05T07:38:00;98478.38;;;8.42;77.43
19259;BME280;9763;48.780;9.212;2022-12-05T07:41:26;98474.50;;;8.49;77.59
19259;BME280;9763;48.780;9.212;2022-12-05T07:44:51;98468.06;;;8.56;77.32
19259;BME280;9763;48.780;9.212;2022-12-05T07:48:14;98473.91;;;8.60;77.53
19259;BME280;9763;48.780;9.212;2022-12-05T07:51:40;98473.91;;;8.60;77.70
19259;BME280;9763;48.780;9.212;2022-12-05T07:55:05;98466.78;;;8.63;77.55
19259;BME280;9763;48.780;9.212;2022-12-05T07:58:30;98472.38;;;8.72;77.85
19259;BME280;9763;48.780;9.212;2022-12-05T08:01:55;98477.56;;;8.87;78.03
19259;BME280;9763;48.780;9.212;2022-12-05T08:05:19;98470.56;;;9.03;77.34
19259;BME280;9763;48.780;9.212;2022-12-05T08:08:43;98469.56;;;9.20;77.94
19259;BME280;9763;48.780;9.212;2022-12-05T08:12:07;98473.97;;;9.34;77.86
19259;BME280;9763;48.780;9.212;2022-12-05T08:15:33;98457.88;;;9.27;77.68
19259;BME280;9763;48.780;9.212;2022-12-05T08:19:02;98489.88;;;9.44;77.05
19259;BME280;9763;48.780;9.212;2022-12-05T08:22:26;98489.88;;;9.44;77.98
19259;BME280;9763;48.780;9.212;2022-12-05T08:25:49;98497.78;;;9.42;77.41
19259;BME280;9763;48.780;9.212;2022-12-05T08:29:14;98468.63;;;9.21;77.43
19259;BME280;9763;48.780;9.212;2022-12-05T08:32:38;98498.34;;;9.33;77.83
19259;BME280;9763;48.780;9.212;2022-12-05T08:36:06;98499.34;;;9.30;77.34
19259;BME280;9763;48.780;9.212;2022-12-05T08:39:31;98507.28;;;9.29;77.69
19259;BME280;9763;48.780;9.212;2022-12-05T08:43:00;98513.31;;;9.29;77.71
19259;BME280;9763;48.780;9.212;2022-12-05T08:46:23;98505.94;;;9.22;77.78
19259;BME280;9763;48.780;9.212;2022-12-05T08:49:47;98522.91;;;9.29;77.93
19259;BME280;9763;48.780;9.212;2022-12-05T08:53:12;98515.09;;;9.29;77.64
19259;BME280;9763;48.780;9.212;2022-12-05T08:56:36;98523.81;;;9.28;78.17
19259;BME280;9763;48.780;9.212;2022-12-05T09:00:00;98513.13;;;9.32;78.35
19259;BME280;9763;48.780;9.212;2022-12-05T09:03:28;98518.06;;;9.37;78.09
19259;BME280;9763;48.780;9.212;2022-12-05T09:06:51;98534.16;;;9.44;77.84
19259;BME280;9763;48.780;9.212;2022-12-05T09:10:17;98534.94;;;9.46;77.80
19259;BME280;9763;48.780;9.212;2022-12-05T09:13:41;98517.91;;;9.40;77.33
19259;BME280;9763;48.780;9.212;2022-12-05T09:17:05;98535.00;;;9.44;77.68
19259;BME280;9763;48.780;9.212;2022-12-05T09:20:29;98544.81;;;9.55;77.08
19259;BME280;9763;48.780;9.212;2022-12-05T09:23:54;98540.44;;;9.55;77.67
19259;BME280;9763;48.780;9.212;2022-12-05T09:27:19;98551.19;;;9.65;77.25
19259;BME280;9763;48.780;9.212;2022-12-05T09:30:43;98543.16;;;9.68;77.70
19259;BME280;9763;48.780;9.212;2022-12-05T09:34:06;98552.22;;;9.77;77.86
19259;BME280;9763;48.780;9.212;2022-12-05T09:37:30;98558.63;;;9.85;77.42
19259;BME280;9763;48.780;9.212;2022-12-05T09:41:11;98560.16;;;9.89;77.37
19259;BME280;9763;48.780;9.212;2022-12-05T09:45:03;98562.28;;;9.97;77.72
19259;BME280;9763;48.780;9.212;2022-12-05T09:48:29;98561.34;;;9.98;77.46
19259;BME280;9763;48.780;9.212;2022-12-05T09:51:56;98561.44;;;9.96;77.76
19259;BME280;9763;48.780;9.212;2022-12-05T09:55:20;98565.16;;;9.92;77.91
19259;BME280;9763;48.780;9.212;2022-12-05T09:58:47;98538.13;;;9.79;77.76
19259;BME280;9763;48.780;9.212;2022-12-05T10:02:28;98559.00;;;9.93;77.63
19259;BME280;9763;48.780;9.212;2022-12-05T10:06:07;98555.19;;;9.85;77.75
19259;BME280;9763;48.780;9.212;2022-12-05T10:09:59;98565.25;;;9.91;77.77
19259;BME280;9763;48.780;9.212;2022-12-05T10:13:43;98558.25;;;9.91;78.58
19259;BME280;9763;48.780;9.212;2022-12-05T10:17:20;98557.53;;;9.89;78.08
19259;BME280;9763;48.780;9.212;2022-12-05T10:20:50;98560.88;;;9.91;78.56
19259;BME280;9763;48.780;9.212;2022-12-05T10:24:17;98535.75;;;9.76;78.64
19259;BME280;9763;48.780;9.212;2022-12-05T10:27:50;98563.13;;;9.97;78.10
19259;BME280;9763;48.780;9.212;2022-12-05T10:31:17;98546.16;;;10.04;78.26
19259;BME280;9763;48.780;9.212;2022-12-05T10:34:45;98547.88;;;10.20;78.66
19259;BME280;9763;48.780;9.212;2022-12-05T10:38:15;98541.41;;;10.39;78.54
19259;BME280;9763;48.780;9.212;2022-12-05T10:41:42;98542.50;;;10.64;78.65
19259;BME280;9763;48.780;9.212;2022-12-05T10:45:14;98542.84;;;10.86;78.56
19259;BME280;9763;48.780;9.212;2022-12-05T10:48:40;98553.09;;;11.02;78.51
19259;BME280;9763;48.780;9.212;2022-12-05T10:52:05;98558.94;;;11.19;77.79
19259;BME280;9763;48.780;9.212;2022-12-05T10:55:35;98545.06;;;11.32;78.09
19259;BME280;9763;48.780;9.212;2022-12-05T10:58:59;98544.34;;;11.42;77.34
19259;BME280;9763;48.780;9.212;2022-12-05T11:02:26;98530.03;;;11.48;77.60
19259;BME280;9763;48.780;9.212;2022-12-05T11:05:52;98539.66;;;11.60;77.43
19259;BME280;9763;48.780;9.212;2022-12-05T11:09:22;98523.28;;;11.58;77.19
19259;BME280;9763;48.780;9.212;2022-12-05T11:12:46;98529.75;;;11.65;77.35
19259;BME280;9763;48.780;9.212;2022-12-05T11:16:24;98516.47;;;11.68;77.00
19259;BME280;9763;48.780;9.212;2022-12-05T11:19:48;98526.25;;;11.79;76.73
19259;BME280;9763;48.780;9.212;2022-12-05T11:23:22;98521.22;;;11.88;77.20
19259;BME280;9763;48.780;9.212;2022-12-05T11:26:48;98523.28;;;11.96;76.61
19259;BME280;9763;48.780;9.212;2022-12-05T11:33:41;98505.31;;;11.92;76.93
19259;BME280;9763;48.780;9.212;2022-12-05T11:37:13;98526.72;;;12.09;77.07
19259;BME280;9763;48.780;9.212;2022-12-05T11:40:50;98518.47;;;12.15;77.03
19259;BME280;9763;48.780;9.212;2022-12-05T11:44:38;98533.22;;;12.29;76.82
19259;BME280;9763;48.780;9.212;2022-12-05T11:48:48;98523.22;;;12.47;77.11
19259;BME280;9763;48.780;9.212;2022-12-05T11:52:27;98516.06;;;12.61;76.12
19259;BME280;9763;48.780;9.212;2022-12-05T11:56:14;98513.91;;;12.79;76.27
19259;BME280;9763;48.780;9.212;2022-12-05T12:00:04;98513.47;;;12.85;75.78
19259;BME280;9763;48.780;9.212;2022-12-05T12:04:13;98511.94;;;12.70;75.60
19259;BME280;9763;48.780;9.212;2022-12-05T12:07:58;98510.66;;;12.52;76.17
19259;BME280;9763;48.780;9.212;2022-12-05T12:11:33;98508.81;;;12.41;75.94
19259;BME280;9763;48.780;9.212;2022-12-05T12:15:23;98508.72;;;12.30;76.49
19259;BME280;9763;48.780;9.212;2022-12-05T12:19:11;98482.25;;;12.09;76.14
19259;BME280;9763;48.780;9.212;2022-12-05T12:23:04;98518.28;;;12.18;76.09
19259;BME280;9763;48.780;9.212;2022-12-05T12:26:42;98516.28;;;12.09;76.25
19259;BME280;9763;48.780;9.212;2022-12-05T12:30:20;98508.84;;;12.03;76.71
19259;BME280;9763;48.780;9.212;2022-12-05T12:33:53;98509.91;;;12.01;77.05
19259;BME280;9763;48.780;9.212;2022-12-05T12:37:34;98515.66;;;12.06;76.88
19259;BME280;9763;48.780;9.212;2022-12-05T12:41:12;98518.59;;;12.01;76.91
19259;BME280;9763;48.780;9.212;2022-12-05T12:49:15;98517.44;;;12.05;76.56
19259;BME280;9763;48.780;9.212;2022-12-05T12:53:19;98518.19;;;12.07;76.63
19259;BME280;9763;48.780;9.212;2022-12-05T12:57:00;98506.03;;;12.06;76.67
19259;BME280;9763;48.780;9.212;2022-12-05T13:00:53;98502.25;;;11.98;76.77
19259;BME280;9763;48.780;9.212;2022-12-05T13:04:26;98501.31;;;11.99;76.36
19259;BME280;9763;48.780;9.212;2022-12-05T13:07:56;98508.56;;;11.95;76.62
19259;BME280;9763;48.780;9.212;2022-12-05T13:11:22;98495.25;;;11.85;76.22
19259;BME280;9763;48.780;9.212;2022-12-05T13:14:54;98503.00;;;11.87;76.70
19259;BME280;9763;48.780;9.212;2022-12-05T13:18:22;98502.50;;;11.82;76.51
19259;BME280;9763;48.780;9.212;2022-12-05T13:21:48;98508.66;;;11.81;77.00
19259;BME280;9763;48.780;9.212;2022-12-05T13:25:14;98502.81;;;11.77;76.94
19259;BME280;9763;48.780;9.212;2022-12-05T13:28:48;98500.34;;;11.74;76.56
19259;BME280;9763;48.780;9.212;2022-12-05T13:32:26;98500.25;;;11.63;76.94
19259;BME280;9763;48.780;9.212;2022-12-05T13:35:55;98500.59;;;11.59;76.69
19259;BME280;9763;48.780;9.212;2022-12-05T13:39:40;98502.13;;;11.48;76.34
19259;BME280;9763;48.780;9.212;2022-12-05T13:43:25;98501.81;;;11.40;76.86
19259;BME280;9763;48.780;9.212;2022-12-05T13:46:51;98512.78;;;11.33;76.47
19259;BME280;9763;48.780;9.212;2022-12-05T13:50:20;98499.25;;;11.13;76.68
19259;BME280;9763;48.780;9.212;2022-12-05T13:53:56;98520.13;;;11.13;76.95
19259;BME280;9763;48.780;9.212;2022-12-05T13:57:48;98523.16;;;11.07;76.35
19259;BME280;9763;48.780;9.212;2022-12-05T14:01:46;98525.81;;;10.93;77.01
19259;BME280;9763;48.780;9.212;2022-12-05T14:05:45;98520.75;;;10.77;76.86
19259;BME280;9763;48.780;9.212;2022-12-05T14:09:28;98540.94;;;10.88;76.86
19259;BME280;9763;48.780;9.212;2022-12-05T14:12:56;98538.63;;;10.83;76.98
19259;BME280;9763;48.780;9.212;2022-12-05T14:16:48;98548.16;;;10.85;77.41
19259;BME280;9763;48.780;9.212;2022-12-05T14:20:24;98546.75;;;10.79;76.93
19259;BME280;9763;48.780;9.212;2022-12-05T14:24:04;98546.00;;;10.77;77.28
19259;BME280;9763;48.780;9.212;2022-12-05T14:27:45;98547.16;;;10.73;77.16
19259;BME280;9763;48.780;9.212;2022-12-05T14:31:35;98549.69;;;10.74;77.11
19259;BME280;9763;48.780;9.212;2022-12-05T14:35:10;98544.72;;;10.70;77.59
19259;BME280;9763;48.780;9.212;2022-12-05T14:38:36;98553.31;;;10.72;77.82
19259;BME280;9763;48.780;9.212;2022-12-05T14:42:03;98557.69;;;10.71;77.51
19259;BME280;9763;48.780;9.212;2022-12-05T14:45:33;98560.41;;;10.70;77.49
19259;BME280;9763;48.780;9.212;2022-12-05T14:49:51;98556.47;;;10.63;77.38
19259;BME280;9763;48.780;9.212;2022-12-05T14:53:30;98563.59;;;10.61;77.57
19259;BME280;9763;48.780;9.212;2022-12-05T14:57:05;98552.22;;;10.62;77.44
19259;BME280;9763;48.780;9.212;2022-12-05T15:00:33;98559.41;;;10.58;77.25
19259;BME280;9763;48.780;9.212;2022-12-05T15:04:13;98556.97;;;10.55;77.40
19259;BME280;9763;48.780;9.212;2022-12-05T15:07:40;98549.41;;;10.51;77.45
19259;BME280;9763;48.780;9.212;2022-12-05T15:11:05;98562.28;;;10.54;77.80
19259;BME280;9763;48.780;9.212;2022-12-05T15:14:36;98565.81;;;10.53;77.18
19259;BME280;9763;48.780;9.212;2022-12-05T15:18:13;98553.63;;;10.39;77.48
19259;BME280;9763;48.780;9.212;2022-12-05T15:21:46;98564.47;;;10.33;77.82
19259;BME280;9763;48.780;9.212;2022-12-05T15:25:27;98560.06;;;10.19;77.06
19259;BME280;9763;48.780;9.212;2022-12-05T15:29:04;98556.69;;;10.03;77.72
19259;BME280;9763;48.780;9.212;2022-12-05T15:32:28;98563.47;;;9.91;77.62
19259;BME280;9763;48.780;9.212;2022-12-05T15:35:53;98575.28;;;9.83;77.84
19259;BME280;9763;48.780;9.212;2022-12-05T15:39:22;98574.06;;;9.74;77.79
19259;BME280;9763;48.780;9.212;2022-12-05T15:42:49;98583.84;;;9.70;77.44
19259;BME280;9763;48.780;9.212;2022-12-05T15:46:19;98584.22;;;9.64;77.80
19259;BME280;9763;48.780;9.212;2022-12-05T15:49:45;98586.59;;;9.53;77.21
19259;BME280;9763;48.780;9.212;2022-12-05T15:53:14;98587.31;;;9.41;77.52
19259;BME280;9763;48.780;9.212;2022-12-05T15:56:47;98592.25;;;9.30;76.89
19259;BME280;9763;48.780;9.212;2022-12-05T16:00:16;98600.53;;;9.22;77.60
19259;BME280;9763;48.780;9.212;2022-12-05T16:03:48;98600.03;;;9.16;77.09
19259;BME280;9763;48.780;9.212;2022-12-05T16:07:13;98605.41;;;9.13;77.62
19259;BME280;9763;48.780;9.212;2022-12-05T16:10:37;98605.34;;;9.14;77.88
19259;BME280;9763;48.780;9.212;2022-12-05T16:14:05;98605.50;;;9.11;77.24
19259;BME280;9763;48.780;9.212;2022-12-05T16:17:39;98608.78;;;9.15;77.58
19259;BME280;9763;48.780;9.212;2022-12-05T16:21:28;98613.31;;;9.11;77.13
19259;BME280;9763;48.780;9.212;2022-12-05T16:25:10;98622.13;;;9.09;77.36
19259;BME280;9763;48.780;9.212;2022-12-05T16:28:35;98623.13;;;9.06;77.84
19259;BME280;9763;48.780;9.212;2022-12-05T16:32:05;98625.41;;;9.12;77.80
19259;BME280;9763;48.780;9.212;2022-12-05T16:35:38;98627.00;;;9.15;77.88
19259;BME280;9763;48.780;9.212;2022-12-05T16:39:05;98621.88;;;9.13;77.52
19259;BME280;9763;48.780;9.212;2022-12-05T16:42:29;98624.72;;;9.24;77.50
19259;BME280;9763;48.780;9.212;2022-12-05T16:45:56;98617.59;;;9.28;77.70
19259;BME280;9763;48.780;9.212;2022-12-05T16:49:32;98625.97;;;9.33;77.46
19259;BME280;9763;48.780;9.212;2022-12-05T16:53:16;98617.13;;;9.35;77.57
19259;BME280;9763;48.780;9.212;2022-12-05T16:56:40;98617.91;;;9.37;77.01
19259;BME280;9763;48.780;9.212;2022-12-05T17:00:06;98621.34;;;9.38;77.71
19259;BME280;9763;48.780;9.212;2022-12-05T17:03:30;98633.34;;;9.41;77.67
19259;BME280;9763;48.780;9.212;2022-12-05T17:06:59;98627.22;;;9.42;77.60
19259;BME280;9763;48.780;9.212;2022-12-05T17:10:24;98631.41;;;9.44;77.74
19259;BME280;9763;48.780;9.212;2022-12-05T17:13:48;98625.19;;;9.47;77.32
19259;BME280;9763;48.780;9.212;2022-12-05T17:17:13;98599.91;;;9.33;77.53
19259;BME280;9763;48.780;9.212;2022-12-05T17:20:43;98607.47;;;9.37;77.47
19259;BME280;9763;48.780;9.212;2022-12-05T17:24:14;98627.34;;;9.54;76.89
19259;BME280;9763;48.780;9.212;2022-12-05T17:27:38;98624.56;;;9.57;77.64
19259;BME280;9763;48.780;9.212;2022-12-05T17:31:02;98623.63;;;9.58;77.22
19259;BME280;9763;48.780;9.212;2022-12-05T17:34:26;98620.03;;;9.61;77.38
19259;BME280;9763;48.780;9.212;2022-12-05T17:37:50;98631.28;;;9.61;76.83
19259;BME280;9763;48.780;9.212;2022-12-05T17:41:18;98627.09;;;9.59;77.15
19259;BME280;9763;48.780;9.212;2022-12-05T17:44:42;98630.69;;;9.56;77.03
19259;BME280;9763;48.780;9.212;2022-12-05T17:48:07;98632.47;;;9.56;76.82
19259;BME280;9763;48.780;9.212;2022-12-05T17:51:32;98623.06;;;9.53;77.51
19259;BME280;9763;48.780;9.212;2022-12-05T17:55:17;98603.28;;;9.35;77.42
19259;BME280;9763;48.780;9.212;2022-12-05T17:58:42;98629.38;;;9.49;77.57
19259;BME280;9763;48.780;9.212;2022-12-05T18:02:08;98623.41;;;9.47;77.57
19259;BME280;9763;48.780;9.212;2022-12-05T18:05:32;98618.22;;;9.47;77.15
19259;BME280;9763;48.780;9.212;2022-12-05T18:08:56;98602.50;;;9.33;77.22
19259;BME280;9763;48.780;9.212;2022-12-05T18:12:20;98628.63;;;9.47;77.35
19259;BME280;9763;48.780;9.212;2022-12-05T18:15:46;98626.94;;;9.46;77.26
19259;BME280;9763;48.780;9.212;2022-12-05T18:19:10;98629.63;;;9.45;77.54
19259;BME280;9763;48.780;9.212;2022-12-05T18:22:34;98622.00;;;9.42;77.43
19259;BME280;9763;48.780;9.212;2022-12-05T18:25:59;98620.50;;;9.37;77.30
19259;BME280;9763;48.780;9.212;2022-12-05T18:29:23;98617.31;;;9.32;76.92
19259;BME280;9763;48.780;9.212;2022-12-05T18:32:48;98623.63;;;9.28;76.71
19259;BME280;9763;48.780;9.212;2022-12-05T18:36:14;98627.31;;;9.24;77.33
19259;BME280;9763;48.780;9.212;2022-12-05T18:39:38;98635.22;;;9.23;77.25
19259;BME280;9763;48.780;9.212;2022-12-05T18:43:02;98639.59;;;9.22;77.33
19259;BME280;9763;48.780;9.212;2022-12-05T18:46:26;98643.94;;;9.22;77.52
19259;BME280;9763;48.780;9.212;2022-12-05T18:49:51;98641.50;;;9.19;76.87
19259;BME280;9763;48.780;9.212;2022-12-05T18:53:14;98644.88;;;9.21;76.83
19259;BME280;9763;48.780;9.212;2022-12-05T18:56:38;98628.00;;;9.12;77.16
19259;BME280;9763;48.780;9.212;2022-12-05T19:00:02;98638.09;;;9.02;76.88
19259;BME280;9763;48.780;9.212;2022-12-05T19:03:26;98643.69;;;8.95;77.37
19259;BME280;9763;48.780;9.212;2022-12-05T19:06:54;98651.84;;;8.89;77.52
19259;BME280;9763;48.780;9.212;2022-12-05T19:10:19;98652.03;;;8.86;77.82
19259;BME280;9763;48.780;9.212;2022-12-05T19:13:42;98659.75;;;8.87;77.93